Flight Track Log - Related Links

Times and Time Zones

All times are in EDT time to prevent confusion due to time zone crossing. See the OPT429 flight status page for this flight to view local times or setup timezone preferences in your user account.

Time Position Orientation Groundspeed Altitude Reporting Facility
EDT Latitude Longitude Course Direction KTS MPH feet Rate Location/Type
Tue 11:06:08 AM 24.6453 -81.7419 17° North 230 265 5,200  Level Miami Center
Tue 11:07:10 AM 24.7111 -81.7475 356° North 230 265 8,300 2,710 Climbing Miami Center
Tue 11:08:12 AM 24.7853 -81.7481 360° North 257 296 10,800 2,419 Climbing Miami Center
Tue 11:09:14 AM 24.8661 -81.7517 358° North 282 325 13,300 2,419 Climbing Miami Center
Tue 11:10:00 AM 25.1541 -81.6060 14° North  Level FlightAware Approximate
Tue 11:10:16 AM 24.9528 -81.7569 357° North 303 349 15,800  Level Miami Center
Tue 11:11:00 AM 25.2533 -81.5767 17° North  Level FlightAware Approximate
Tue 11:11:18 AM 25.0489 -81.7475 North 357 411 16,600  Level Miami Center
Tue 11:12:20 AM 25.1553 -81.7106 17° North 369 425 18,600 1,984 Climbing Miami Center
Tue 11:13:22 AM 25.2386 -81.6444 36° Northeast 365 420 20,700 2,032 Climbing Miami Center
Tue 11:14:24 AM 25.3192 -81.5833 34° Northeast 352 405 22,800 2,226 Climbing Miami Center
Tue 11:15:26 AM 25.4106 -81.5225 31° Northeast 322 371 25,300 1,935 Climbing Miami Center
Tue 11:16:28 AM 25.4931 -81.5053 11° North 303 349 26,800 1,065 Climbing Miami Center
Tue 11:17:30 AM 25.5803 -81.4867 11° North 317 365 27,500 629 Climbing Miami Center
Tue 11:18:32 AM 25.6781 -81.4825 North 347 399 28,100 532 Climbing Miami Center
Tue 11:19:34 AM 25.7825 -81.4783 North 372 428 28,600 484 Climbing Miami Center
Tue 11:20:36 AM 25.8925 -81.4719 North 392 451 29,100 581 Climbing Miami Center
Tue 11:21:38 AM 26.0069 -81.4669 North 408 470 29,800 871 Climbing Miami Center
Tue 11:22:40 AM 26.1497 -81.4592 North 425 489 30,900 968 Climbing Miami Center
Tue 11:23:42 AM 26.2717 -81.4528 North 432 497 31,800 871 Climbing Miami Center
Tue 11:24:44 AM 26.3956 -81.4461 North 441 507 32,700 919 Climbing Miami Center
Tue 11:25:46 AM 26.5317 -81.4383 North 448 516 33,700 1,065 Climbing Miami Center
Tue 11:26:48 AM 26.6664 -81.4314 North 450 518 34,900 1,210 Climbing Miami Center
Tue 11:27:50 AM 26.7881 -81.4256 North 448 516 36,200 1,355 Climbing Miami Center
Tue 11:28:52 AM 26.9183 -81.4192 North 442 509 37,700 1,403 Climbing Miami Center
Tue 11:29:54 AM 27.0389 -81.4136 North 430 495 39,100 1,306 Climbing Miami Center
Tue 11:30:56 AM 27.1528 -81.4086 North 415 478 40,400 919 Climbing Miami Center
Tue 11:31:58 AM 27.2667 -81.4075 360° North 412 474 41,000 290 Climbing Miami Center
Tue 11:33:00 AM 27.3844 -81.4125 358° North 419 482 41,000  Level Miami Center
Tue 11:34:02 AM 27.5069 -81.4153 359° North 436 502 41,000 -48 Level Miami Center
Tue 11:35:04 AM 27.6581 -81.4206 358° North 450 518 40,900  Descending Miami Center
Tue 11:36:06 AM 27.7828 -81.4244 358° North 452 520 41,000 48 Climbing Miami Center
Tue 11:37:08 AM 27.9119 -81.4292 358° North 439 505 41,000  Level Miami Center
Tue 11:38:10 AM 28.0336 -81.4331 358° North 436 502 41,000  Level Miami Center
Tue 11:39:12 AM 28.1564 -81.4369 358° North 436 502 41,000  Level Miami Center
Tue 11:40:14 AM 28.2789 -81.4414 358° North 436 502 41,000  Level Miami Center
Tue 11:41:16 AM 28.4022 -81.4453 358° North 438 504 41,000  Level Miami Center
Tue 11:42:18 AM 28.5244 -81.4489 359° North 438 504 41,000  Level Miami Center
Tue 11:43:09 AM 28.6489 -81.4567 357° North 439 505 41,000  Level Jacksonville Center
Tue 11:44:09 AM 28.7742 -81.4594 359° North 439 505 41,000  Level Jacksonville Center
Tue 11:45:09 AM 28.8953 -81.4625 359° North 439 505 41,000  Level Jacksonville Center
Tue 11:46:09 AM 29.0186 -81.4703 357° North 439 505 41,000  Level Jacksonville Center
Tue 11:47:09 AM 29.1417 -81.4708 360° North 439 505 41,000  Level Jacksonville Center
Tue 11:48:09 AM 29.2503 -81.4742 358° North 439 505 41,000  Level Jacksonville Center
Tue 11:49:09 AM 29.3714 -81.4819 357° North 439 505 41,000  Level Jacksonville Center
Tue 11:50:09 AM 29.4967 -81.4847 359° North 439 505 41,000  Level Jacksonville Center
Tue 11:51:09 AM 29.6178 -81.4903 358° North 439 505 41,000  Level Jacksonville Center
Tue 11:52:09 AM 29.7431 -81.4908 360° North 439 505 41,000  Level Jacksonville Center
Tue 11:53:09 AM 29.8664 -81.4986 357° North 444 511 41,000  Level Jacksonville Center
Tue 11:54:09 AM 29.9917 -81.4992 360° North 444 511 41,000  Level Jacksonville Center
Tue 11:55:09 AM 30.1150 -81.5022 359° North 444 511 41,000  Level Jacksonville Center
Tue 11:56:10 AM 30.2403 -81.5053 359° North 444 511 41,000  Level Jacksonville Center
Tue 11:57:09 AM 30.3611 -81.4914 North 436 502 41,000  Level Jacksonville Center
Tue 11:58:09 AM 30.4753 -81.4344 23° Northeast 431 496 41,000  Level Jacksonville Center
Tue 11:59:09 AM 30.5831 -81.3725 26° Northeast 431 496 41,000  Level Jacksonville Center
Tue 12:00:09 PM 30.6931 -81.3128 25° Northeast 431 496 41,000  Level Jacksonville Center
Tue 12:01:09 PM 30.8050 -81.2503 26° Northeast 431 496 41,000  Level Jacksonville Center
Tue 12:02:09 PM 30.9128 -81.1878 26° Northeast 437 503 41,000  Level Jacksonville Center
Tue 12:03:09 PM 31.0269 -81.1278 24° Northeast 437 503 41,000  Level Jacksonville Center
Tue 12:04:09 PM 31.1344 -81.0625 27° Northeast 437 503 41,000  Level Jacksonville Center
Tue 12:05:09 PM 31.2464 -81.0019 25° Northeast 437 503 41,000  Level Jacksonville Center
Tue 12:06:09 PM 31.3539 -80.9342 28° Northeast 437 503 41,000  Level Jacksonville Center
Tue 12:07:09 PM 31.4781 -80.8658 25° Northeast 443 510 41,000  Level Jacksonville Center
Tue 12:08:09 PM 31.5942 -80.8194 19° North 436 502 41,000  Level Jacksonville Center
Tue 12:09:09 PM 31.7067 -80.7950 10° North 441 507 41,000  Level Jacksonville Center
Tue 12:10:09 PM 31.8397 -80.7625 12° North 441 507 41,000  Level Jacksonville Center
Tue 12:11:09 PM 31.9478 -80.7306 14° North 446 513 41,000  Level Jacksonville Center
Tue 12:12:09 PM 32.0653 -80.6444 32° Northeast 440 506 41,000  Level Jacksonville Center
Tue 12:13:09 PM 32.1661 -80.5708 32° Northeast 440 506 41,000  Level Jacksonville Center
Tue 12:14:09 PM 32.2711 -80.4922 32° Northeast 450 518 41,000  Level Jacksonville Center
Tue 12:15:09 PM 32.3761 -80.4156 32° Northeast 450 518 41,000  Level Jacksonville Center
Tue 12:16:09 PM 32.4728 -80.3464 31° Northeast 445 512 41,000  Level Jacksonville Center
Tue 12:17:09 PM 32.5797 -80.2694 31° Northeast 450 518 41,000  Level Jacksonville Center
Tue 12:18:09 PM 32.6825 -80.1900 33° Northeast 445 512 41,000  Level Jacksonville Center
Tue 12:19:09 PM 32.7914 -80.1100 32° Northeast 445 512 41,000  Level Jacksonville Center
Tue 12:20:09 PM 32.9072 -80.0569 21° North 445 512 41,000  Level Jacksonville Center
Tue 12:21:09 PM 33.0336 -80.0158 15° North 445 512 41,000  Level Jacksonville Center
Tue 12:22:09 PM 33.1581 -79.9822 13° North 457 526 41,000  Level Jacksonville Center
Tue 12:23:09 PM 33.2803 -79.9483 13° North 452 520 41,000  Level Jacksonville Center
Tue 12:24:09 PM 33.4047 -79.9119 14° North 447 514 41,000  Level Jacksonville Center
Tue 12:25:09 PM 33.5250 -79.8753 14° North 447 514 41,000  Level Jacksonville Center
Tue 12:26:09 PM 33.6472 -79.8389 14° North 447 514 41,000  Level Jacksonville Center
Tue 12:27:09 PM 33.7694 -79.8022 14° North 447 514 41,000  Level Jacksonville Center
Tue 12:28:09 PM 33.8914 -79.7603 16° North 447 514 41,000  Level Jacksonville Center
Tue 12:30:34 PM 34.1794 -79.6686 15° North 455 524 41,000  Level Washington Center
Tue 12:31:34 PM 34.3058 -79.6319 13° North 455 524 41,000  Level Washington Center
Tue 12:32:35 PM 34.4303 -79.5978 13° North 455 524 41,000  Level Washington Center
Tue 12:33:33 PM 34.5544 -79.5611 14° North 455 524 41,000  Level Washington Center
Tue 12:34:33 PM 34.6769 -79.5217 15° North 455 524 41,000  Level Washington Center
Tue 12:35:34 PM 34.8011 -79.4872 13° North 455 524 41,000  Level Washington Center
Tue 12:36:34 PM 34.9256 -79.4475 15° North 455 524 41,000  Level Washington Center
Tue 12:37:34 PM 35.0497 -79.4128 13° North 455 524 41,000  Level Washington Center
Tue 12:38:35 PM 35.1761 -79.3731 14° North 455 524 41,000  Level Washington Center
Tue 12:39:33 PM 35.2983 -79.3356 14° North 455 524 41,000  Level Washington Center
Tue 12:40:33 PM 35.4269 -79.2958 14° North 460 529 41,000  Level Washington Center
Tue 12:41:34 PM 35.5575 -79.2558 14° North 452 520 41,000  Level Washington Center
Tue 12:42:35 PM 35.6756 -79.2178 15° North 445 512 41,000  Level Washington Center
Tue 12:43:33 PM 35.7881 -79.1486 27° Northeast 439 505 41,000 -763 Level Washington Center
Tue 12:44:33 PM 35.8989 -79.0717 29° Northeast 439 505 39,500 -6,942 Descending Washington Center
Tue 12:45:34 PM 36.0036 -78.9914 32° Northeast 444 511 27,000 -2,705 Descending Washington Center
Tue 12:46:35 PM 36.1081 -78.9111 32° Northeast 444 511 34,000 2,168 Climbing Washington Center
Tue 12:47:33 PM 36.2122 -78.8356 30° Northeast 433 498 31,300 -2,773 Descending Washington Center
Tue 12:48:34 PM 36.3186 -78.7575 31° Northeast 433 498 28,500 -2,115 Descending Washington Center
Tue 12:49:35 PM 36.4272 -78.6769 31° Northeast 438 504 27,000 -756 Descending Washington Center
Tue 12:50:33 PM 36.5356 -78.5958 31° Northeast 443 510 27,000  Level Washington Center
Tue 12:51:33 PM 36.6464 -78.5094 32° Northeast 449 517 27,000  Level Washington Center
Tue 12:52:34 PM 36.7483 -78.4303 32° Northeast 463 533 27,000  Level Washington Center
Tue 12:53:35 PM 36.8567 -78.3436 33° Northeast 463 533 27,000  Level Washington Center
Tue 12:54:33 PM 36.9819 -78.2517 30° Northeast 463 533 27,000 -51 Level Washington Center
Tue 12:55:33 PM 37.0944 -78.1619 32° Northeast 463 533 26,900 -885 Descending Washington Center
Tue 12:56:35 PM 37.1919 -78.0922 30° Northeast 458 527 25,200 -1,820 Descending Washington Center
Tue 12:57:35 PM 37.2936 -78.0119 32° Northeast 447 514 23,200 -1,119 Descending Washington Center
Tue 12:58:33 PM 37.3953 -77.9342 31° Northeast 430 495 23,000 -101 Descending Washington Center
Tue 12:59:34 PM 37.4992 -77.8536 32° Northeast 430 495 23,000  Level Washington Center
Tue 01:00:35 PM 37.6047 -77.7833 28° Northeast 430 495 23,000 -1,008 Level Washington Center
Tue 01:01:33 PM 37.7144 -77.7208 24° Northeast 425 489 21,000 -2,319 Descending Washington Center
Tue 01:02:34 PM 37.8175 -77.6606 25° Northeast 418 481 18,400 -2,557 Descending Washington Center
Tue 01:03:35 PM 37.9144 -77.6028 25° Northeast 399 459 15,800 -2,672 Descending Washington Center
Tue 01:04:33 PM 38.0114 -77.5447 25° Northeast 381 438 13,100 -2,542 Descending Washington Center
Tue 01:05:33 PM 38.0997 -77.4942 24° Northeast 368 423 10,800 -1,488 Descending Washington Center
Tue 01:06:34 PM 38.1797 -77.4567 20° North 334 384 10,100 -885 Descending Washington Center
Tue 01:07:35 PM 38.2694 -77.4483 North 294 338 9,000 -1,513 Descending Washington Center
Tue 01:08:33 PM 38.3486 -77.4450 North 294 338 7,100 -1,815 Descending Washington Center
Tue 01:09:34 PM 38.4175 -77.4439 North 263 303 5,400 -1,475 Descending Washington Center
Tue 01:10:35 PM 38.4739 -77.4453 359° North 255 293 4,100 -706 Descending Washington Center
Tue 01:11:33 PM 38.5447 -77.4472 359° North 255 293 4,000 -254 Descending Washington Center
Tue 01:12:33 PM 38.6364 -77.4469 360° North 266 306 3,600 -595 Descending Washington Center
Tue 01:13:34 PM 38.7072 -77.4458 North 266 306 2,800 -727 Descending Washington Center
Tue 01:14:45 PM 38.8000 -77.4500 358° North 256 295 2,000 -350 Descending Potomac TRACON
Tue 01:15:51 PM 38.8500 -77.4333 15° North 162 186 2,000 -500 Level Potomac TRACON
Tue 01:16:45 PM 38.8833 -77.4333 360° North 121 139 1,000 -1,111 Descending Potomac TRACON
Tue 01:18:00 PM 38.9474 -77.4599 North  Level Estimated
Tue 01:25:00 PM 38.9474 -77.4599 191° South  Level Estimated
Tue 01:26:00 PM 38.9474 -77.4599 191° South  Level Estimated

Login

Don't have an account? Register now (free) for customized features, flight alerts, and more!